Time;durP1;ratioP1;P1;durP2;ratioP2;P2;SDS_P1;SDS_P2;PMS_P1;PMS_P2;Temp;Humidity;BMP_temperature;BMP_pressure;BME280_temperature;BME280_humidity;BME280_pressure;Samples;Min_cycle;Max_cycle;Signal;HPM_P1;HPM_P2
2022/01/19 00:01:49;;;;;;;5.60;5.10;;;3.50;99.90;;;;;;459896;258;28014;-68
2022/01/19 00:03:50;;;;;;;7.00;5.50;;;3.60;99.90;;;;;;459882;258;27978;-68
2022/01/19 00:05:51;;;;;;;7.00;5.45;;;3.60;99.90;;;;;;459863;258;28010;-68
2022/01/19 00:07:53;;;;;;;6.18;5.20;;;3.60;99.90;;;;;;459862;258;27579;-68
2022/01/19 00:09:54;;;;;;;5.20;4.70;;;3.50;99.90;;;;;;459907;258;27574;-68
2022/01/19 00:11:55;;;;;;;5.72;5.15;;;3.60;99.90;;;;;;459875;258;27595;-68
2022/01/19 00:13:56;;;;;;;5.22;4.72;;;3.50;99.90;;;;;;459879;258;27522;-68
2022/01/19 00:15:58;;;;;;;5.12;4.72;;;3.50;99.90;;;;;;459878;258;27459;-68
2022/01/19 00:17:59;;;;;;;5.05;4.55;;;3.50;99.90;;;;;;459856;258;27514;-68
2022/01/19 00:20:00;;;;;;;4.72;4.25;;;3.40;99.90;;;;;;459900;258;27503;-68
2022/01/19 00:22:01;;;;;;;4.37;3.92;;;3.50;99.90;;;;;;459877;258;27475;-68
2022/01/19 00:24:03;;;;;;;4.50;4.10;;;3.40;99.90;;;;;;459871;258;27616;-68
2022/01/19 00:26:04;;;;;;;4.87;4.20;;;3.50;99.90;;;;;;459876;258;27577;-68
2022/01/19 00:28:05;;;;;;;4.60;4.20;;;3.40;99.90;;;;;;459845;258;27998;-68
2022/01/19 00:30:06;;;;;;;4.60;4.20;;;3.50;99.90;;;;;;459892;258;27982;-68
2022/01/19 00:32:08;;;;;;;4.50;3.65;;;3.50;99.90;;;;;;459873;258;28036;-68
2022/01/19 00:34:09;;;;;;;4.62;4.18;;;3.40;99.90;;;;;;459885;258;28024;-68
2022/01/19 00:36:10;;;;;;;4.70;4.30;;;3.40;99.90;;;;;;459860;258;27468;-68
2022/01/19 00:38:11;;;;;;;4.35;3.97;;;3.40;99.90;;;;;;459850;258;27571;-68
2022/01/19 00:40:15;;;;;;;4.05;3.75;;;3.40;99.90;;;;;;459893;258;27583;-68
2022/01/19 00:42:17;;;;;;;4.22;3.85;;;3.40;99.90;;;;;;459880;258;27503;-68
2022/01/19 00:44:18;;;;;;;4.40;4.00;;;3.40;99.90;;;;;;459888;258;27542;-68
2022/01/19 00:46:19;;;;;;;4.10;3.70;;;3.40;99.90;;;;;;459886;258;27567;-68
2022/01/19 00:48:20;;;;;;;5.30;4.80;;;3.40;99.90;;;;;;459864;258;27568;-68
2022/01/19 00:50:22;;;;;;;5.03;4.53;;;3.40;99.90;;;;;;459866;258;27490;-68
2022/01/19 00:52:23;;;;;;;4.07;3.78;;;3.40;99.90;;;;;;459883;258;27508;-68
2022/01/19 00:54:24;;;;;;;4.00;3.70;;;3.40;99.90;;;;;;459885;258;27474;-68
2022/01/19 00:56:27;;;;;;;3.65;3.35;;;3.40;99.90;;;;;;459889;258;27514;-68
2022/01/19 00:58:27;;;;;;;4.12;3.72;;;3.40;99.90;;;;;;459848;258;27455;-68
2022/01/19 01:00:28;;;;;;;4.78;3.90;;;3.40;99.90;;;;;;459873;258;27561;-68
2022/01/19 01:02:31;;;;;;;4.45;4.05;;;3.40;99.90;;;;;;459865;258;28013;-68
2022/01/19 01:04:32;;;;;;;3.62;3.42;;;3.40;99.90;;;;;;459850;258;27907;-68
2022/01/19 01:06:32;;;;;;;3.78;3.47;;;3.40;99.90;;;;;;459878;258;28082;-68
2022/01/19 01:08:33;;;;;;;3.70;3.40;;;3.40;99.90;;;;;;459822;258;28837;-68
2022/01/19 01:10:44;;;;;;;5.95;4.10;;;3.40;99.90;;;;;;459903;258;27547;-68
2022/01/19 01:12:52;;;;;;;4.37;4.00;;;3.40;99.90;;;;;;459209;257;27549;-68
2022/01/19 01:18:16;;;;;;;4.97;3.67;;;3.30;99.90;;;;;;459892;258;27539;-70
2022/01/19 01:19:13;;;;;;;5.05;4.65;;;3.30;99.90;;;;;;460344;258;27944;-70
2022/01/19 01:21:14;;;;;;;5.35;4.82;;;3.30;99.90;;;;;;459900;258;29130;-70
2022/01/19 01:23:15;;;;;;;5.65;5.10;;;3.30;99.90;;;;;;459884;258;27500;-70
2022/01/19 01:25:17;;;;;;;5.55;5.00;;;3.30;99.90;;;;;;459902;258;27531;-68
2022/01/19 01:27:18;;;;;;;5.75;4.90;;;3.30;99.90;;;;;;459900;258;27517;-68
2022/01/19 01:29:19;;;;;;;6.20;5.37;;;3.30;99.90;;;;;;459888;258;27446;-68
2022/01/19 01:31:20;;;;;;;5.25;4.75;;;3.30;99.90;;;;;;459861;258;27526;-68
2022/01/19 01:33:22;;;;;;;5.37;4.75;;;3.30;99.90;;;;;;459880;258;27521;-68
2022/01/19 01:35:23;;;;;;;5.75;4.78;;;3.20;99.90;;;;;;459884;258;27475;-68
2022/01/19 01:37:24;;;;;;;10.13;7.45;;;3.20;99.90;;;;;;459877;258;27491;-68
2022/01/19 01:39:25;;;;;;;8.48;6.97;;;3.00;99.90;;;;;;459876;258;27843;-68
2022/01/19 01:41:27;;;;;;;7.93;7.10;;;3.10;99.90;;;;;;459849;258;27506;-68
2022/01/19 01:43:28;;;;;;;9.52;6.40;;;3.10;99.90;;;;;;459878;258;27959;-68
2022/01/19 01:45:32;;;;;;;11.73;8.57;;;3.00;99.90;;;;;;459894;258;27934;-68
2022/01/19 01:47:33;;;;;;;10.70;8.40;;;2.80;99.90;;;;;;459883;258;29103;-68
2022/01/19 01:53:52;;;;;;;8.82;7.55;;;2.60;99.90;;;;;;454566;258;27608;-70
2022/01/19 01:55:53;;;;;;;10.90;7.87;;;2.50;99.90;;;;;;459866;258;27507;-70
2022/01/19 01:57:55;;;;;;;9.40;7.62;;;2.50;99.90;;;;;;459860;258;27625;-69
2022/01/19 01:59:56;;;;;;;9.75;7.85;;;2.40;99.90;;;;;;459859;258;27510;-68
2022/01/19 02:01:57;;;;;;;11.98;8.38;;;2.40;99.90;;;;;;459867;258;27924;-68
2022/01/19 02:03:58;;;;;;;12.30;7.95;;;2.30;99.90;;;;;;459864;258;28093;-68
2022/01/19 02:06:20;;;;;;;12.07;8.73;;;2.30;99.90;;;;;;459881;258;27935;-68
2022/01/19 02:08:09;;;;;;;13.13;9.13;;;2.20;99.90;;;;;;459951;258;27477;-68
2022/01/19 02:10:06;;;;;;;12.90;7.97;;;2.20;99.90;;;;;;459840;258;27518;-68
2022/01/19 02:21:37;;;;;;;11.43;9.23;;;2.10;99.90;;;;;;460329;254;27582;-70
2022/01/19 02:23:37;;;;;;;14.30;7.50;;;2.00;99.90;;;;;;460315;258;28831;-69
2022/01/19 02:25:36;;;;;;;16.33;8.70;;;2.00;99.90;;;;;;459771;258;27978;-70
2022/01/19 02:30:40;;;;;;;10.70;8.80;;;1.90;99.90;;;;;;459833;258;27550;-70
2022/01/19 02:40:56;;;;;;;13.05;8.02;;;1.80;99.90;;;;;;459839;258;27535;-69
2022/01/19 02:43:07;;;;;;;7.57;6.45;;;1.90;99.90;;;;;;460314;258;27507;-70
2022/01/19 02:46:39;;;;;;;8.30;7.07;;;1.80;99.90;;;;;;459921;258;27511;-70
2022/01/19 02:49:19;;;;;;;7.72;6.03;;;1.80;99.90;;;;;;459877;258;27476;-68
2022/01/19 02:51:19;;;;;;;6.43;5.82;;;1.80;99.90;;;;;;459856;258;27619;-68
2022/01/19 02:53:21;;;;;;;8.40;5.55;;;1.70;99.90;;;;;;459870;258;27478;-68
2022/01/19 02:55:22;;;;;;;6.37;5.50;;;1.70;99.90;;;;;;459847;258;27611;-68
2022/01/19 02:57:25;;;;;;;5.65;5.00;;;1.70;99.90;;;;;;459852;254;27602;-68
2022/01/19 03:08:50;;;;;;;6.78;4.57;;;1.40;99.90;;;;;;459883;258;27547;-70
2022/01/19 03:10:49;;;;;;;4.43;4.03;;;1.40;99.90;;;;;;460297;258;27895;-70
2022/01/19 03:12:51;;;;;;;4.70;4.30;;;1.30;99.90;;;;;;459844;258;28014;-70
2022/01/19 03:14:52;;;;;;;5.35;4.45;;;1.30;99.90;;;;;;459842;258;28061;-70
2022/01/19 03:16:53;;;;;;;4.18;3.83;;;1.30;99.90;;;;;;459841;258;29016;-70
2022/01/19 03:18:54;;;;;;;4.55;4.15;;;1.30;99.90;;;;;;459857;258;28120;-70
2022/01/19 03:20:56;;;;;;;4.57;4.18;;;1.20;99.90;;;;;;459892;258;27636;-69
2022/01/19 03:23:06;;;;;;;4.28;3.87;;;1.30;99.90;;;;;;459873;258;27522;-70
2022/01/19 03:25:02;;;;;;;5.28;4.78;;;1.20;99.90;;;;;;459775;258;27459;-70
2022/01/19 03:27:02;;;;;;;4.62;4.22;;;1.20;99.90;;;;;;459859;258;27506;-70
2022/01/19 03:29:04;;;;;;;5.20;4.70;;;1.20;99.90;;;;;;459901;258;27589;-70
2022/01/19 03:31:05;;;;;;;4.50;4.10;;;1.10;99.90;;;;;;459881;258;27452;-70
2022/01/19 03:33:06;;;;;;;4.87;4.30;;;1.10;99.90;;;;;;459874;258;27542;-70
2022/01/19 03:35:08;;;;;;;4.80;4.35;;;1.10;99.90;;;;;;459894;258;27466;-70
2022/01/19 03:37:11;;;;;;;4.57;4.28;;;1.10;99.90;;;;;;459877;258;27970;-70
2022/01/19 03:39:10;;;;;;;4.20;3.80;;;1.00;99.90;;;;;;459888;258;27958;-70
2022/01/19 03:41:11;;;;;;;4.55;4.15;;;1.00;99.90;;;;;;459895;258;27939;-70
2022/01/19 03:43:13;;;;;;;5.30;4.80;;;0.90;99.90;;;;;;459871;258;28072;-70
2022/01/19 03:45:14;;;;;;;4.30;3.90;;;0.90;99.90;;;;;;459875;258;27566;-70
2022/01/19 03:47:17;;;;;;;5.62;3.62;;;0.80;99.90;;;;;;459863;258;27554;-70
2022/01/19 03:49:23;;;;;;;4.20;3.90;;;0.80;99.90;;;;;;459893;258;27596;-70
2022/01/19 03:51:18;;;;;;;4.60;4.00;;;0.70;99.90;;;;;;459910;258;27485;-68
2022/01/19 03:53:19;;;;;;;4.53;4.12;;;0.60;99.90;;;;;;459852;258;27507;-68
2022/01/19 03:55:20;;;;;;;5.30;4.65;;;0.60;99.90;;;;;;459875;258;27486;-68
2022/01/19 03:57:21;;;;;;;6.40;5.10;;;0.60;99.90;;;;;;459901;258;27595;-67
2022/01/19 03:59:23;;;;;;;7.20;4.22;;;0.50;99.90;;;;;;459900;258;27491;-68
2022/01/19 04:01:24;;;;;;;6.18;5.20;;;0.50;99.90;;;;;;459876;258;27563;-68
2022/01/19 04:03:44;;;;;;;5.40;5.00;;;0.60;99.90;;;;;;459873;258;27502;-68
2022/01/19 04:07:43;;;;;;;6.20;5.60;;;0.50;99.90;;;;;;452839;258;27597;-70
2022/01/19 04:09:44;;;;;;;5.75;5.15;;;0.50;99.90;;;;;;459872;258;27472;-69
2022/01/19 04:11:45;;;;;;;9.50;4.95;;;0.50;99.90;;;;;;459864;258;27510;-70
2022/01/19 04:14:21;;;;;;;8.52;5.00;;;0.40;99.90;;;;;;459824;258;27515;-70
2022/01/19 04:16:00;;;;;;;5.45;4.70;;;0.30;99.90;;;;;;459946;258;27591;-70
2022/01/19 04:18:01;;;;;;;5.00;4.60;;;0.30;99.90;;;;;;459890;258;27509;-68
2022/01/19 04:20:02;;;;;;;5.35;4.30;;;0.30;99.90;;;;;;459873;258;27463;-68
2022/01/19 04:22:04;;;;;;;5.05;4.53;;;0.30;99.90;;;;;;460350;258;27679;-68
2022/01/19 04:24:05;;;;;;;4.90;4.40;;;0.30;99.90;;;;;;459901;258;27506;-67
2022/01/19 04:26:06;;;;;;;5.68;4.53;;;0.30;99.90;;;;;;459876;258;27543;-68
2022/01/19 04:28:07;;;;;;;4.80;4.37;;;0.30;99.90;;;;;;459901;258;27533;-68
2022/01/19 04:30:10;;;;;;;5.10;4.40;;;0.40;99.90;;;;;;459855;258;27466;-68
2022/01/19 04:32:17;;;;;;;6.00;4.85;;;0.30;99.90;;;;;;459873;258;27462;-68
2022/01/19 04:34:14;;;;;;;5.50;4.65;;;0.10;99.90;;;;;;459704;258;27533;-68
2022/01/19 04:36:28;;;;;;;5.12;4.60;;;0.10;99.90;;;;;;459874;258;28012;-68
2022/01/19 05:03:20;;;;;;;4.47;4.07;;;0.00;99.90;;;;;;459850;254;27468;-70
2022/01/19 05:05:22;;;;;;;5.10;4.60;;;0.00;99.90;;;;;;459742;258;27462;-68
2022/01/19 05:07:26;;;;;;;5.47;4.72;;;-0.10;99.90;;;;;;459888;258;27490;-70
2022/01/19 05:09:49;;;;;;;6.10;5.00;;;-0.10;99.90;;;;;;459884;258;27559;-69
2022/01/19 05:13:51;;;;;;;6.65;5.10;;;-0.10;99.90;;;;;;459845;258;27506;-69
2022/01/19 05:15:46;;;;;;;5.80;5.12;;;-0.10;99.90;;;;;;460326;258;28047;-69
2022/01/19 05:17:47;;;;;;;8.73;6.25;;;-0.10;99.90;;;;;;459875;258;29183;-70
2022/01/19 05:19:48;;;;;;;7.10;5.55;;;-0.20;99.90;;;;;;459843;258;27605;-70
2022/01/19 05:21:50;;;;;;;8.68;5.87;;;-0.10;99.90;;;;;;459860;258;27459;-70
2022/01/19 05:23:51;;;;;;;6.03;5.43;;;-0.10;99.90;;;;;;459891;258;27462;-70
2022/01/19 05:25:52;;;;;;;6.62;5.85;;;-0.10;99.90;;;;;;459876;258;27525;-70
2022/01/19 05:27:53;;;;;;;8.80;6.03;;;-0.10;99.90;;;;;;459868;258;27564;-70
2022/01/19 05:29:55;;;;;;;7.30;5.30;;;-0.10;99.90;;;;;;459860;258;27519;-70
2022/01/19 05:31:56;;;;;;;8.68;5.75;;;-0.10;99.90;;;;;;459835;258;27489;-70
2022/01/19 05:33:57;;;;;;;7.20;5.30;;;-0.20;99.90;;;;;;459869;258;27599;-70
2022/01/19 05:35:58;;;;;;;6.32;5.35;;;-0.20;99.90;;;;;;459860;258;28069;-69
2022/01/19 05:38:00;;;;;;;6.30;4.70;;;-0.20;99.90;;;;;;459852;258;28017;-70
2022/01/19 05:40:01;;;;;;;6.80;4.80;;;-0.20;99.90;;;;;;459862;258;27502;-70
2022/01/19 05:42:02;;;;;;;5.50;4.45;;;-0.20;99.90;;;;;;459840;258;27551;-70
2022/01/19 05:44:03;;;;;;;5.28;4.55;;;-0.20;99.90;;;;;;459859;258;27586;-70
2022/01/19 05:46:05;;;;;;;5.22;4.43;;;-0.20;99.90;;;;;;459788;258;27503;-70
2022/01/19 05:48:07;;;;;;;6.00;4.47;;;-0.20;99.90;;;;;;459698;258;27555;-70
2022/01/19 05:50:07;;;;;;;5.22;4.12;;;-0.20;99.90;;;;;;459665;258;27618;-70
2022/01/19 05:52:08;;;;;;;4.72;4.30;;;-0.20;99.90;;;;;;459693;258;27859;-69
2022/01/19 05:54:10;;;;;;;5.35;4.65;;;-0.20;99.90;;;;;;459714;258;27556;-70
2022/01/19 05:56:11;;;;;;;5.75;5.18;;;-0.20;99.90;;;;;;459872;258;28101;-69
2022/01/19 05:58:12;;;;;;;5.90;5.30;;;-0.20;99.90;;;;;;459860;258;27969;-70
2022/01/19 06:00:13;;;;;;;5.37;4.90;;;-0.20;99.90;;;;;;459864;258;27475;-69
2022/01/19 06:02:16;;;;;;;5.32;4.70;;;-0.20;99.90;;;;;;460329;258;27603;-69
2022/01/19 06:04:16;;;;;;;4.78;4.37;;;-0.20;99.90;;;;;;459863;258;27468;-70
2022/01/19 06:06:17;;;;;;;4.82;4.43;;;-0.20;99.90;;;;;;459865;258;27534;-69
2022/01/19 06:10:44;;;;;;;5.37;4.87;;;-0.30;99.90;;;;;;459853;258;27503;-70
2022/01/19 06:12:45;;;;;;;5.40;4.90;;;-0.40;99.90;;;;;;459821;258;27500;-70
2022/01/19 06:14:46;;;;;;;5.70;5.05;;;-0.50;99.90;;;;;;459854;258;27496;-70
2022/01/19 06:16:48;;;;;;;5.65;5.10;;;-0.60;99.90;;;;;;459839;258;27500;-70
2022/01/19 06:18:49;;;;;;;5.43;4.93;;;-0.70;99.90;;;;;;459861;258;28434;-70
2022/01/19 06:20:50;;;;;;;5.90;5.30;;;-0.70;99.90;;;;;;459883;254;27546;-69
2022/01/19 06:22:52;;;;;;;5.55;5.05;;;-0.60;99.90;;;;;;459875;258;27566;-70
2022/01/19 06:24:53;;;;;;;7.15;5.32;;;-0.60;99.90;;;;;;459865;258;27566;-69
2022/01/19 06:26:54;;;;;;;6.65;5.07;;;-0.70;99.90;;;;;;459833;258;27490;-69
2022/01/19 06:28:55;;;;;;;6.22;5.62;;;-0.70;99.90;;;;;;459872;258;27502;-70
2022/01/19 06:30:56;;;;;;;5.37;4.87;;;-0.70;99.90;;;;;;459858;258;28069;-70
2022/01/19 06:32:58;;;;;;;7.30;6.20;;;-0.70;99.90;;;;;;459872;258;29075;-70
2022/01/19 06:34:59;;;;;;;7.35;6.35;;;-0.80;99.90;;;;;;459822;258;29026;-70
2022/01/19 06:37:00;;;;;;;9.45;7.00;;;-0.70;99.90;;;;;;459860;258;27476;-70
2022/01/19 06:39:01;;;;;;;7.70;6.30;;;-0.70;99.90;;;;;;459890;258;27487;-70
2022/01/19 06:41:03;;;;;;;8.55;6.70;;;-0.80;99.90;;;;;;459865;258;27459;-70
2022/01/19 06:43:04;;;;;;;10.00;7.47;;;-0.90;99.90;;;;;;459874;258;27503;-68
2022/01/19 06:45:05;;;;;;;6.78;5.72;;;-0.80;99.90;;;;;;459859;258;27583;-67
2022/01/19 06:47:06;;;;;;;7.00;5.53;;;-0.80;99.90;;;;;;459886;258;27463;-67
2022/01/19 06:49:08;;;;;;;6.43;5.80;;;-0.80;99.90;;;;;;459848;258;27517;-67
2022/01/19 06:51:09;;;;;;;6.55;5.95;;;-0.80;99.90;;;;;;459869;258;27918;-68
2022/01/19 06:53:10;;;;;;;9.05;7.07;;;-0.80;99.90;;;;;;459858;258;29195;-67
2022/01/19 06:55:11;;;;;;;7.68;5.90;;;-0.80;99.90;;;;;;459874;258;27579;-68
2022/01/19 06:57:13;;;;;;;8.18;6.75;;;-0.80;99.90;;;;;;459900;258;27467;-68
2022/01/19 06:59:14;;;;;;;11.30;7.85;;;-0.90;99.90;;;;;;459904;258;27590;-68
2022/01/19 07:01:15;;;;;;;8.85;6.97;;;-0.90;99.90;;;;;;459904;258;27455;-68
2022/01/19 07:03:16;;;;;;;7.10;5.72;;;-0.90;99.90;;;;;;459867;258;27589;-68
2022/01/19 07:05:18;;;;;;;7.18;6.00;;;-0.80;99.90;;;;;;459919;258;27931;-68
2022/01/19 07:07:19;;;;;;;6.85;5.50;;;-0.70;99.90;;;;;;459909;258;27875;-68
2022/01/19 07:09:20;;;;;;;7.62;5.70;;;-0.70;99.90;;;;;;459876;258;27950;-67
2022/01/19 07:11:21;;;;;;;6.12;5.53;;;-0.70;99.90;;;;;;459893;258;27967;-68
2022/01/19 07:13:23;;;;;;;7.15;5.82;;;-0.60;99.90;;;;;;459901;258;27982;-68
2022/01/19 07:15:24;;;;;;;8.00;6.32;;;-0.60;99.90;;;;;;459921;254;27561;-68
2022/01/19 07:17:25;;;;;;;8.90;6.45;;;-0.60;99.90;;;;;;459901;258;27466;-67
2022/01/19 07:19:27;;;;;;;10.88;5.50;;;-0.50;99.90;;;;;;459893;258;27526;-68
2022/01/19 07:21:28;;;;;;;6.97;5.65;;;-0.60;99.90;;;;;;459895;258;27499;-67
2022/01/19 07:23:29;;;;;;;8.52;6.40;;;-0.50;99.90;;;;;;459851;258;27487;-68
2022/01/19 07:25:31;;;;;;;6.22;5.62;;;-0.50;99.90;;;;;;459906;255;27506;-67
2022/01/19 07:27:32;;;;;;;10.60;6.65;;;-0.40;99.90;;;;;;459874;258;27455;-68
2022/01/19 07:29:33;;;;;;;6.75;5.40;;;-0.30;99.90;;;;;;459881;258;27983;-68
2022/01/19 07:31:34;;;;;;;6.32;5.05;;;-0.20;99.90;;;;;;459869;258;29107;-68
2022/01/19 07:33:35;;;;;;;7.55;5.93;;;-0.10;99.90;;;;;;459902;258;27460;-67
2022/01/19 07:35:37;;;;;;;8.10;6.30;;;-0.20;99.90;;;;;;459886;258;27514;-67
2022/01/19 07:37:38;;;;;;;6.87;6.15;;;-0.20;99.90;;;;;;459884;258;27567;-68
2022/01/19 07:39:39;;;;;;;6.93;5.40;;;-0.30;99.90;;;;;;459883;258;27492;-68
2022/01/19 07:41:40;;;;;;;8.32;6.03;;;-0.30;99.90;;;;;;459852;258;27530;-68
2022/01/19 07:43:42;;;;;;;6.87;5.78;;;-0.20;99.90;;;;;;459895;258;27479;-68
2022/01/19 07:45:43;;;;;;;8.05;5.75;;;-0.30;99.90;;;;;;459895;258;27621;-67
2022/01/19 07:47:44;;;;;;;5.85;5.25;;;-0.20;99.90;;;;;;459872;258;27948;-67
2022/01/19 07:49:45;;;;;;;7.93;6.00;;;-0.10;99.90;;;;;;459862;258;28002;-68
2022/01/19 07:51:47;;;;;;;6.15;5.32;;;0.00;99.90;;;;;;459890;258;29192;-68
2022/01/19 07:53:49;;;;;;;6.43;5.43;;;0.10;99.90;;;;;;459877;258;28118;-68
2022/01/19 07:55:50;;;;;;;8.07;6.10;;;0.10;99.90;;;;;;459836;258;27515;-67
2022/01/19 07:57:51;;;;;;;7.45;5.55;;;0.20;99.90;;;;;;459877;258;27471;-67
2022/01/19 07:59:52;;;;;;;8.68;6.28;;;0.20;99.90;;;;;;459911;258;27525;-68
2022/01/19 08:01:56;;;;;;;9.25;7.00;;;0.20;99.90;;;;;;459904;258;27483;-67
2022/01/19 08:03:57;;;;;;;10.93;6.85;;;0.20;99.90;;;;;;459876;258;29068;-68
2022/01/19 08:05:58;;;;;;;10.25;7.57;;;0.20;99.90;;;;;;459874;258;27590;-68
2022/01/19 08:08:01;;;;;;;11.00;7.05;;;0.20;99.90;;;;;;459867;258;27602;-67
2022/01/19 08:10:01;;;;;;;8.35;6.90;;;0.30;99.90;;;;;;459849;258;27483;-68
2022/01/19 08:12:02;;;;;;;11.30;8.32;;;0.40;99.90;;;;;;459889;258;27452;-68
2022/01/19 08:14:03;;;;;;;9.95;7.62;;;0.40;99.90;;;;;;459887;258;27637;-68
2022/01/19 08:16:05;;;;;;;9.20;7.40;;;0.50;99.90;;;;;;459845;258;27479;-68
2022/01/19 08:18:06;;;;;;;9.77;7.45;;;0.60;99.90;;;;;;459874;258;27507;-68
2022/01/19 08:20:07;;;;;;;11.88;8.57;;;0.70;99.90;;;;;;459901;258;27578;-68
2022/01/19 08:22:08;;;;;;;13.77;8.90;;;0.70;99.90;;;;;;459883;258;27614;-68
2022/01/19 08:24:10;;;;;;;9.32;7.30;;;0.70;99.90;;;;;;459870;258;28149;-68
2022/01/19 08:26:15;;;;;;;11.82;8.60;;;0.80;99.90;;;;;;459868;258;27984;-68
2022/01/19 08:28:12;;;;;;;11.12;8.00;;;0.80;99.90;;;;;;459684;258;27996;-68
2022/01/19 08:30:13;;;;;;;16.65;9.00;;;0.90;99.90;;;;;;459878;258;27563;-68
2022/01/19 08:32:15;;;;;;;13.57;8.25;;;0.90;99.90;;;;;;459705;258;27455;-68
2022/01/19 08:34:17;;;;;;;15.85;10.27;;;1.00;99.90;;;;;;459864;258;27498;-67
2022/01/19 08:36:17;;;;;;;13.48;9.88;;;1.10;99.90;;;;;;459844;258;27536;-68
2022/01/19 08:38:18;;;;;;;13.82;10.23;;;1.10;99.90;;;;;;459890;258;27618;-68
2022/01/19 08:40:25;;;;;;;17.83;11.05;;;1.10;99.90;;;;;;459881;258;27590;-68
2022/01/19 08:42:21;;;;;;;19.70;11.63;;;1.10;99.90;;;;;;460305;258;28004;-68
2022/01/19 08:44:22;;;;;;;15.82;10.55;;;1.10;99.90;;;;;;459874;258;28093;-68
2022/01/19 08:46:23;;;;;;;15.82;10.55;;;1.10;99.90;;;;;;459876;258;27506;-68
2022/01/19 08:48:25;;;;;;;20.83;12.40;;;1.20;99.90;;;;;;459910;258;27544;-68
2022/01/19 08:50:26;;;;;;;23.12;13.30;;;1.10;99.90;;;;;;459870;258;27566;-67
2022/01/19 08:52:27;;;;;;;21.87;13.23;;;1.10;99.90;;;;;;459869;258;27526;-68
2022/01/19 08:54:28;;;;;;;17.23;10.70;;;1.10;99.90;;;;;;459865;258;27526;-67
2022/01/19 08:56:30;;;;;;;21.23;13.18;;;1.10;99.90;;;;;;459881;258;27901;-68
2022/01/19 08:58:31;;;;;;;21.70;13.68;;;1.00;99.90;;;;;;459906;258;27576;-68
2022/01/19 09:00:32;;;;;;;22.85;14.70;;;1.10;99.90;;;;;;459904;258;27612;-68
2022/01/19 09:02:33;;;;;;;24.58;14.70;;;1.10;99.90;;;;;;459857;258;27479;-68
2022/01/19 09:04:35;;;;;;;22.50;15.00;;;1.10;99.90;;;;;;459902;258;27591;-68
2022/01/19 09:06:37;;;;;;;20.92;14.70;;;1.10;99.90;;;;;;459924;258;27530;-68
2022/01/19 09:08:38;;;;;;;22.05;14.18;;;1.10;99.90;;;;;;459912;258;27522;-68
2022/01/19 09:10:40;;;;;;;23.75;13.82;;;1.10;99.90;;;;;;459904;258;27478;-68
2022/01/19 09:12:40;;;;;;;17.98;12.27;;;1.00;99.90;;;;;;459874;258;27989;-68
2022/01/19 09:14:42;;;;;;;19.33;12.20;;;1.10;99.90;;;;;;459885;258;27917;-68
2022/01/19 09:16:45;;;;;;;21.92;13.02;;;1.10;99.90;;;;;;459866;258;27483;-68
2022/01/19 09:18:44;;;;;;;23.10;12.98;;;1.10;99.90;;;;;;459880;258;27531;-68
2022/01/19 09:20:46;;;;;;;21.35;13.30;;;1.10;99.90;;;;;;459883;258;27554;-68
2022/01/19 09:22:48;;;;;;;21.30;12.88;;;1.20;99.90;;;;;;459845;258;27498;-68
2022/01/19 09:24:48;;;;;;;19.23;13.13;;;1.20;99.90;;;;;;459843;258;27502;-68
2022/01/19 09:26:49;;;;;;;20.95;13.20;;;1.20;99.90;;;;;;459877;258;27939;-68
2022/01/19 09:28:51;;;;;;;16.90;11.88;;;1.20;99.90;;;;;;459877;258;28004;-68
2022/01/19 09:30:52;;;;;;;24.85;14.70;;;1.20;99.90;;;;;;459889;258;27542;-68
2022/01/19 09:33:07;;;;;;;20.55;13.30;;;1.10;99.90;;;;;;459845;258;27510;-68
2022/01/19 09:35:06;;;;;;;22.05;13.43;;;1.10;99.90;;;;;;459876;258;28154;-68
2022/01/19 09:36:58;;;;;;;28.38;17.92;;;1.10;99.90;;;;;;459901;258;27969;-68
2022/01/19 09:39:00;;;;;;;22.73;16.12;;;1.10;99.90;;;;;;459879;258;27540;-68
2022/01/19 09:41:01;;;;;;;27.83;16.50;;;1.10;99.90;;;;;;459886;258;27580;-68
2022/01/19 09:43:05;;;;;;;24.58;15.55;;;1.00;99.90;;;;;;459876;258;27528;-68
2022/01/19 09:45:04;;;;;;;30.77;15.35;;;1.00;99.90;;;;;;459861;258;27507;-68
2022/01/19 09:47:05;;;;;;;22.60;14.90;;;1.10;99.90;;;;;;459867;258;27533;-68
2022/01/19 09:49:06;;;;;;;23.77;14.95;;;1.10;99.90;;;;;;459865;258;27967;-68
2022/01/19 09:51:07;;;;;;;22.77;14.25;;;1.00;99.90;;;;;;459859;258;27982;-68
2022/01/19 09:53:09;;;;;;;23.58;14.55;;;1.10;99.90;;;;;;459852;258;27486;-68
2022/01/19 09:55:10;;;;;;;24.95;15.20;;;1.10;99.90;;;;;;459867;258;27474;-68
2022/01/19 09:57:11;;;;;;;23.58;14.25;;;1.10;99.90;;;;;;459881;258;27491;-68
2022/01/19 09:59:15;;;;;;;23.73;14.68;;;1.10;99.90;;;;;;459869;258;27534;-68
2022/01/19 10:01:16;;;;;;;23.62;13.45;;;1.20;99.90;;;;;;459875;258;27470;-70
2022/01/19 10:03:17;;;;;;;24.02;15.10;;;1.10;99.90;;;;;;459849;258;27542;-70
2022/01/19 10:05:19;;;;;;;26.23;15.68;;;1.20;99.90;;;;;;459837;258;27599;-70
2022/01/19 10:07:20;;;;;;;29.05;15.90;;;1.10;99.90;;;;;;459871;258;27963;-70
2022/01/19 10:09:21;;;;;;;24.55;14.10;;;1.10;99.90;;;;;;459867;258;28096;-70
2022/01/19 10:18:06;;;;;;;22.62;13.90;;;1.20;99.90;;;;;;460331;257;28174;-70
2022/01/19 10:20:07;;;;;;;21.95;14.07;;;1.20;99.90;;;;;;459764;258;28043;-69
2022/01/19 10:22:08;;;;;;;25.52;15.40;;;1.20;99.90;;;;;;459828;258;27494;-70
2022/01/19 10:24:12;;;;;;;26.30;15.93;;;1.20;99.90;;;;;;459890;258;27510;-69
2022/01/19 10:26:11;;;;;;;26.50;14.63;;;1.20;99.90;;;;;;459858;258;27554;-70
2022/01/19 10:28:12;;;;;;;25.02;14.52;;;1.30;99.90;;;;;;459870;258;27535;-70
2022/01/19 10:30:13;;;;;;;25.73;14.77;;;1.30;99.90;;;;;;460332;258;27467;-70
2022/01/19 10:32:14;;;;;;;22.33;14.23;;;1.30;99.90;;;;;;459844;258;27503;-70
2022/01/19 10:34:16;;;;;;;26.67;14.45;;;1.30;99.90;;;;;;459880;258;27994;-70
2022/01/19 10:36:17;;;;;;;25.15;15.73;;;1.30;99.90;;;;;;459843;258;28012;-70
2022/01/19 10:38:18;;;;;;;28.40;14.50;;;1.40;99.90;;;;;;459853;258;27503;-70
2022/01/19 10:40:19;;;;;;;18.48;12.30;;;1.40;99.90;;;;;;459857;258;27490;-70
2022/01/19 10:42:21;;;;;;;22.48;13.70;;;1.40;99.90;;;;;;459878;258;27463;-70
2022/01/19 10:44:22;;;;;;;22.73;14.60;;;1.40;99.90;;;;;;459858;258;27587;-70
2022/01/19 10:46:24;;;;;;;21.17;13.05;;;1.40;99.90;;;;;;459848;258;27490;-70
2022/01/19 10:48:24;;;;;;;20.70;14.07;;;1.40;99.90;;;;;;459838;258;27966;-70
2022/01/19 10:50:28;;;;;;;22.67;14.15;;;1.40;99.90;;;;;;459838;258;28727;-69
2022/01/19 10:52:30;;;;;;;23.17;14.65;;;1.40;99.90;;;;;;459831;258;27648;-70
2022/01/19 10:54:32;;;;;;;21.60;14.75;;;1.40;99.90;;;;;;459862;258;27535;-70
2022/01/19 10:56:32;;;;;;;23.60;13.50;;;1.40;99.90;;;;;;459844;258;27583;-70
2022/01/19 10:58:33;;;;;;;23.05;14.23;;;1.30;99.90;;;;;;459861;258;27546;-70
2022/01/19 11:00:36;;;;;;;21.50;13.82;;;1.40;99.90;;;;;;459847;258;27506;-70
2022/01/19 11:02:36;;;;;;;24.87;13.95;;;1.40;99.90;;;;;;459825;258;28730;-70
2022/01/19 11:04:42;;;;;;;24.98;14.80;;;1.30;99.90;;;;;;459888;258;27914;-70
2022/01/19 11:06:41;;;;;;;26.00;14.48;;;1.30;99.90;;;;;;459840;258;27470;-70
2022/01/19 11:08:48;;;;;;;24.40;13.95;;;1.40;99.90;;;;;;459859;258;27511;-68
2022/01/19 11:10:50;;;;;;;26.30;14.38;;;1.40;99.90;;;;;;459874;258;27553;-68
2022/01/19 11:12:55;;;;;;;25.65;14.38;;;1.40;99.90;;;;;;459841;258;29079;-68
2022/01/19 11:14:52;;;;;;;22.95;14.57;;;1.40;99.90;;;;;;459850;258;27578;-68
2022/01/19 11:16:53;;;;;;;26.75;15.15;;;1.30;99.90;;;;;;459865;258;27552;-68
2022/01/19 11:18:55;;;;;;;25.70;14.48;;;1.40;99.90;;;;;;459864;258;27503;-68
2022/01/19 11:20:56;;;;;;;28.33;14.82;;;1.40;99.90;;;;;;459837;255;27532;-68
2022/01/19 11:22:57;;;;;;;25.67;15.10;;;1.40;99.90;;;;;;459866;258;27516;-68
2022/01/19 11:24:59;;;;;;;24.48;13.93;;;1.30;99.90;;;;;;459867;258;28407;-68
2022/01/19 11:27:00;;;;;;;25.50;14.07;;;1.30;99.90;;;;;;459862;258;27634;-68
2022/01/19 11:29:01;;;;;;;28.62;16.75;;;1.40;99.90;;;;;;459859;258;27978;-68
2022/01/19 11:31:02;;;;;;;26.10;15.63;;;1.30;99.90;;;;;;459826;258;27928;-68
2022/01/19 11:33:03;;;;;;;26.02;16.58;;;1.30;99.90;;;;;;459842;258;28023;-68
2022/01/19 11:35:05;;;;;;;29.10;15.52;;;1.30;99.90;;;;;;459851;258;27503;-68
2022/01/19 11:37:06;;;;;;;31.95;17.10;;;1.30;99.90;;;;;;459824;258;27569;-68
2022/01/19 11:39:07;;;;;;;27.08;14.85;;;1.30;99.90;;;;;;459851;258;27502;-68
2022/01/19 11:41:08;;;;;;;30.75;16.98;;;1.30;99.90;;;;;;459845;258;27528;-68
2022/01/19 11:43:10;;;;;;;26.50;16.37;;;1.30;99.90;;;;;;459868;255;27510;-68
2022/01/19 11:45:11;;;;;;;31.30;17.52;;;1.40;99.90;;;;;;459882;258;27955;-67
2022/01/19 11:47:12;;;;;;;30.55;16.48;;;1.30;99.90;;;;;;459872;258;28041;-68
2022/01/19 11:49:13;;;;;;;32.67;16.45;;;1.30;99.90;;;;;;459877;258;27609;-68
2022/01/19 11:51:15;;;;;;;28.65;14.65;;;1.30;99.90;;;;;;460325;254;27740;-68